createdAt,value
2022-08-05T00:02:07.583Z,21.75
2022-08-05T00:04:40.893Z,19.77
2022-08-05T00:07:27.490Z,20.23
2022-08-05T00:10:09.940Z,19.58
2022-08-05T00:12:55.953Z,14.35
2022-08-05T00:15:55.606Z,17.77
2022-08-05T00:18:23.027Z,16.05
2022-08-05T00:20:56.834Z,11.05
2022-08-05T00:23:44.650Z,10.13
2022-08-05T00:26:22.289Z,11.57
2022-08-05T00:28:55.814Z,12.43
2022-08-05T00:31:54.148Z,10.73
2022-08-05T00:34:54.817Z,11.85
2022-08-05T00:37:14.552Z,8.45
2022-08-05T00:39:58.435Z,8.80
2022-08-05T00:42:35.539Z,10.25
2022-08-05T00:45:11.532Z,11.95
2022-08-05T00:47:56.817Z,9.15
2022-08-05T00:50:42.074Z,9.40
2022-08-05T00:56:11.156Z,7.78
2022-08-05T00:58:46.395Z,10.52
2022-08-05T01:01:24.691Z,6.82
2022-08-05T01:04:14.269Z,8.57
2022-08-05T01:06:51.780Z,11.30
2022-08-05T01:09:25.550Z,8.35
2022-08-05T01:12:18.013Z,7.32
2022-08-05T01:15:04.135Z,7.57
2022-08-05T01:17:43.939Z,5.28
2022-08-05T01:23:20.066Z,7.07
2022-08-05T01:26:06.647Z,7.60
2022-08-05T01:28:47.989Z,4.95
2022-08-05T01:31:30.017Z,8.17
2022-08-05T01:34:09.038Z,10.80
2022-08-05T01:36:47.978Z,5.18
2022-08-05T01:39:36.846Z,3.45
2022-08-05T01:42:18.467Z,4.80
2022-08-05T01:44:56.521Z,7.25
2022-08-05T01:47:39.741Z,9.38
2022-08-05T01:50:28.686Z,5.82
2022-08-05T01:53:08.457Z,7.78
2022-08-05T01:55:46.588Z,5.18
2022-08-05T01:58:40.651Z,7.88
2022-08-05T02:01:25.331Z,4.85
2022-08-05T02:04:01.811Z,6.57
2022-08-05T02:06:38.318Z,6.22
2022-08-05T02:09:12.019Z,3.90
2022-08-05T02:11:55.939Z,8.07
2022-08-05T02:14:33.415Z,5.15
2022-08-05T02:17:29.686Z,5.82
2022-08-05T02:20:12.485Z,8.40
2022-08-05T02:22:49.170Z,7.13
2022-08-05T02:25:26.627Z,5.15
2022-08-05T02:28:08.919Z,6.15
2022-08-05T02:30:54.277Z,7.43
2022-08-05T02:33:38.226Z,5.25
2022-08-05T02:36:15.953Z,4.72
2022-08-05T02:38:53.623Z,6.60
2022-08-05T02:41:42.864Z,5.28
2022-08-05T02:44:25.321Z,4.72
2022-08-05T02:47:00.862Z,4.28
2022-08-05T02:49:40.365Z,7.88
2022-08-05T02:52:29.886Z,14.40
2022-08-05T02:55:05.546Z,17.73
2022-08-05T02:58:10.619Z,12.70
2022-08-05T03:00:38.330Z,10.00
2022-08-05T03:03:15.995Z,9.32
2022-08-05T03:06:53.880Z,7.37
2022-08-05T03:08:45.912Z,12.85
2022-08-05T03:11:57.149Z,9.07
2022-08-05T03:14:19.552Z,7.43
2022-08-05T03:16:53.477Z,8.85
2022-08-05T03:19:34.164Z,9.07
2022-08-05T03:22:16.813Z,10.73
2022-08-05T03:24:52.943Z,7.38
2022-08-05T03:27:29.593Z,10.25
2022-08-05T03:30:13.109Z,9.25
2022-08-05T03:32:46.340Z,9.13
2022-08-05T03:35:19.375Z,7.57
2022-08-05T03:37:55.151Z,10.60
2022-08-05T03:40:31.431Z,7.65
2022-08-05T03:43:59.083Z,6.68
2022-08-05T03:45:59.072Z,8.15
2022-08-05T03:48:35.708Z,8.95
2022-08-05T03:52:38.009Z,6.97
2022-08-05T03:55:53.611Z,9.15
2022-08-05T03:57:16.713Z,8.75
2022-08-05T03:59:56.656Z,6.55
2022-08-05T04:02:38.390Z,12.70
2022-08-05T04:05:18.760Z,11.43
2022-08-05T04:07:58.541Z,10.65
2022-08-05T04:10:38.129Z,7.97
2022-08-05T04:13:11.566Z,10.35
2022-08-05T04:16:02.849Z,10.70
2022-08-05T04:18:37.228Z,7.13
2022-08-05T04:21:13.000Z,9.82
2022-08-05T04:24:09.073Z,9.45
2022-08-05T04:26:48.604Z,9.02
2022-08-05T04:29:21.575Z,11.95
2022-08-05T04:31:56.926Z,6.50
2022-08-05T04:34:32.647Z,9.45
2022-08-05T04:37:07.189Z,7.18
2022-08-05T04:39:40.222Z,11.30
2022-08-05T04:42:14.757Z,13.40
2022-08-05T04:44:47.720Z,11.30
2022-08-05T04:47:20.819Z,5.63
2022-08-05T04:50:01.343Z,12.23
2022-08-05T04:52:36.256Z,7.70
2022-08-05T04:55:14.643Z,8.02
2022-08-05T04:57:51.558Z,6.53
2022-08-05T05:00:27.625Z,10.65
2022-08-05T05:03:04.031Z,12.32
2022-08-05T05:06:39.351Z,7.95
2022-08-05T05:08:31.252Z,7.15
2022-08-05T05:11:04.494Z,6.55
2022-08-05T05:13:43.318Z,7.18
2022-08-05T05:16:16.557Z,8.73
2022-08-05T05:19:17.788Z,6.70
2022-08-05T05:21:46.432Z,10.52
2022-08-05T05:24:21.629Z,9.30
2022-08-05T05:26:54.581Z,8.18
2022-08-05T05:30:04.605Z,11.45
2022-08-05T05:32:24.464Z,10.07
2022-08-05T05:34:59.017Z,9.60
2022-08-05T05:37:59.107Z,9.70
2022-08-05T05:40:26.435Z,10.32
2022-08-05T05:43:02.163Z,9.18
2022-08-05T05:45:36.920Z,12.75
2022-08-05T05:48:27.297Z,8.27
2022-08-05T05:51:13.024Z,11.40
2022-08-05T05:53:58.367Z,8.87
2022-08-05T05:56:34.836Z,7.60
2022-08-05T05:59:08.318Z,10.18
2022-08-05T06:01:57.122Z,9.52
2022-08-05T06:04:31.054Z,15.30
2022-08-05T06:07:04.241Z,8.82
2022-08-05T06:09:59.874Z,11.23
2022-08-05T06:12:31.222Z,7.97
2022-08-05T06:15:06.278Z,13.82
2022-08-05T06:17:52.665Z,8.88
2022-08-05T06:20:26.730Z,6.75
2022-08-05T06:23:01.819Z,11.60
2022-08-05T06:26:13.360Z,8.93
2022-08-05T06:28:30.077Z,9.60
2022-08-05T06:31:11.042Z,10.55
2022-08-05T06:34:08.025Z,9.25
2022-08-05T06:36:57.679Z,10.05
2022-08-05T06:39:31.979Z,7.30
2022-08-05T06:42:05.164Z,8.00
2022-08-05T06:44:38.138Z,10.93
2022-08-05T06:48:11.519Z,8.73
2022-08-05T06:50:06.971Z,10.70
2022-08-05T06:52:40.285Z,9.13
2022-08-05T06:55:13.577Z,6.97
2022-08-05T06:58:03.751Z,8.00
2022-08-05T07:00:41.323Z,6.47
2022-08-05T07:03:14.176Z,7.22
2022-08-05T07:05:51.135Z,6.95
2022-08-05T07:08:25.183Z,8.48
2022-08-05T07:10:58.465Z,7.38
2022-08-05T07:13:58.206Z,5.93
2022-08-05T07:18:02.125Z,7.93
2022-08-05T07:22:38.668Z,8.77
2022-08-05T07:25:54.969Z,6.03
2022-08-05T07:28:08.366Z,7.60
2022-08-05T07:30:44.844Z,8.07
2022-08-05T07:33:36.812Z,8.82
2022-08-05T07:36:21.150Z,6.28
2022-08-05T07:38:56.298Z,8.57
2022-08-05T07:42:13.506Z,6.78
2022-08-05T07:44:22.816Z,6.68
2022-08-05T07:46:55.699Z,6.63
2022-08-05T07:49:28.834Z,8.27
2022-08-05T07:52:01.887Z,4.50
2022-08-05T07:54:38.604Z,8.52
2022-08-05T07:57:41.919Z,4.85
2022-08-05T08:00:11.518Z,11.32
2022-08-05T08:03:14.807Z,10.80
2022-08-05T08:05:39.574Z,6.35
2022-08-05T08:08:13.457Z,8.18
2022-08-05T08:10:49.797Z,7.10
2022-08-05T08:13:29.421Z,7.53
2022-08-05T08:16:35.473Z,9.50
2022-08-05T08:18:55.535Z,6.63
2022-08-05T08:21:30.925Z,10.23
2022-08-05T08:24:05.266Z,12.68
2022-08-05T08:26:41.410Z,7.32
2022-08-05T08:29:29.479Z,6.78
2022-08-05T08:32:07.827Z,8.15
2022-08-05T08:34:44.898Z,9.30
2022-08-05T08:37:20.402Z,8.25
2022-08-05T08:40:00.738Z,6.53
2022-08-05T08:42:50.742Z,9.27
2022-08-05T08:48:23.125Z,5.70
2022-08-05T08:51:07.650Z,11.82
2022-08-05T08:53:54.753Z,5.47
2022-08-05T08:56:28.022Z,9.77
2022-08-05T08:59:04.819Z,8.30
2022-08-05T09:01:57.081Z,4.28
2022-08-05T09:04:31.081Z,8.25
2022-08-05T09:07:04.614Z,4.72
2022-08-05T09:09:52.595Z,5.40
2022-08-05T09:12:27.235Z,5.80
2022-08-05T09:15:05.753Z,7.20
2022-08-05T09:17:43.128Z,9.60
2022-08-05T09:20:36.587Z,7.65
2022-08-05T09:23:19.518Z,4.13
2022-08-05T09:26:09.354Z,6.00
2022-08-05T09:28:42.538Z,8.70
2022-08-05T09:31:44.139Z,4.25
2022-08-05T09:34:13.034Z,8.68
2022-08-05T09:36:55.280Z,8.05
2022-08-05T09:39:45.865Z,5.50
2022-08-05T09:42:28.437Z,13.70
2022-08-05T09:46:05.036Z,7.15
2022-08-05T09:48:20.110Z,5.15
2022-08-05T09:50:56.338Z,4.15
2022-08-05T09:53:54.884Z,8.52
2022-08-05T09:56:27.565Z,7.70
2022-08-05T09:59:03.200Z,7.13
2022-08-05T10:01:40.435Z,5.53
2022-08-05T10:04:28.612Z,10.02
2022-08-05T10:07:06.142Z,6.43
2022-08-05T10:10:13.899Z,7.97
2022-08-05T10:12:51.399Z,6.85
2022-08-05T10:15:28.483Z,6.47
2022-08-05T10:18:09.625Z,7.82
2022-08-05T10:20:47.908Z,7.00
2022-08-05T10:23:55.352Z,4.53
2022-08-05T10:26:18.520Z,7.18
2022-08-05T10:28:53.062Z,8.23
2022-08-05T10:32:52.876Z,6.53
2022-08-05T10:34:25.883Z,5.28
2022-08-05T10:37:04.519Z,6.20
2022-08-05T10:39:59.153Z,8.35
2022-08-05T10:42:38.512Z,7.93
2022-08-05T10:45:24.070Z,8.90
2022-08-05T10:48:52.499Z,8.50
2022-08-05T10:51:28.899Z,6.10
2022-08-05T10:54:05.818Z,7.07
2022-08-05T10:56:57.258Z,7.07
2022-08-05T11:00:03.501Z,5.50
2022-08-05T11:02:37.475Z,6.60
2022-08-05T11:05:12.000Z,5.25
2022-08-05T11:08:02.593Z,6.68
2022-08-05T11:10:50.195Z,4.75
2022-08-05T11:13:55.005Z,6.05
2022-08-05T11:16:47.962Z,5.53
2022-08-05T11:20:10.030Z,5.88
2022-08-05T11:22:42.647Z,6.00
2022-08-05T11:26:04.903Z,3.65
2022-08-05T11:28:44.717Z,4.70
2022-08-05T11:31:57.801Z,8.23
2022-08-05T11:34:38.749Z,6.15
2022-08-05T11:38:26.164Z,3.42
2022-08-05T11:40:05.798Z,4.65
2022-08-05T11:42:42.251Z,2.75
2022-08-05T11:46:15.689Z,5.63
2022-08-05T11:48:12.245Z,1.52
2022-08-05T11:50:49.315Z,11.02
2022-08-05T11:53:23.144Z,6.28
2022-08-05T11:56:00.876Z,7.38
2022-08-05T11:58:36.780Z,6.25
2022-08-05T12:01:12.661Z,2.80
2022-08-05T12:03:55.544Z,2.90
2022-08-05T12:06:30.396Z,4.95
2022-08-05T12:09:05.778Z,2.72
2022-08-05T12:11:40.318Z,6.25
2022-08-05T12:14:14.835Z,4.97
2022-08-05T12:16:56.506Z,4.47
2022-08-05T12:20:26.825Z,5.47
2022-08-05T12:22:29.490Z,5.35
2022-08-05T12:25:06.408Z,5.32
2022-08-05T12:27:53.133Z,4.38
2022-08-05T12:30:29.097Z,2.20
2022-08-05T12:33:27.802Z,3.95
2022-08-05T12:36:02.070Z,4.43
2022-08-05T12:38:35.898Z,5.30
2022-08-05T12:41:13.170Z,4.35
2022-08-05T12:43:52.062Z,5.30
2022-08-05T12:46:29.031Z,9.32
2022-08-05T12:49:13.780Z,5.97
2022-08-05T12:52:13.552Z,6.75
2022-08-05T12:54:42.919Z,6.28
2022-08-05T12:57:16.709Z,7.93
2022-08-05T13:02:03.861Z,8.45
2022-08-05T13:02:47.121Z,5.35
2022-08-05T13:05:21.925Z,4.93
2022-08-05T13:07:59.805Z,5.75
2022-08-05T13:13:08.815Z,5.38
2022-08-05T13:15:50.886Z,5.43
2022-08-05T13:18:24.205Z,6.90
2022-08-05T13:20:58.688Z,6.00
2022-08-05T13:23:31.676Z,5.47
2022-08-05T13:26:07.573Z,7.60
2022-08-05T13:28:44.360Z,6.55
2022-08-05T13:31:17.392Z,6.50
2022-08-05T13:34:22.502Z,7.50
2022-08-05T13:37:00.507Z,5.30
2022-08-05T13:40:13.859Z,4.20
2022-08-05T13:42:27.493Z,5.43
2022-08-05T13:45:01.698Z,3.55
2022-08-05T13:48:08.958Z,5.25
2022-08-05T13:50:28.443Z,4.45
2022-08-05T13:53:03.096Z,4.70
2022-08-05T13:55:49.287Z,4.03
2022-08-05T13:58:30.619Z,5.35
2022-08-05T14:01:05.172Z,5.10
2022-08-05T14:03:40.621Z,4.10
2022-08-05T14:06:26.154Z,3.90
2022-08-05T14:09:01.818Z,3.78
2022-08-05T14:12:04.267Z,5.00
2022-08-05T14:14:34.551Z,6.43
2022-08-05T14:17:07.540Z,5.28
2022-08-05T14:19:54.559Z,6.53
2022-08-05T14:22:30.325Z,5.35
2022-08-05T14:25:06.357Z,2.90
2022-08-05T14:27:54.341Z,4.60
2022-08-05T14:30:28.399Z,5.13
2022-08-05T14:33:04.670Z,4.93
2022-08-05T14:35:51.357Z,7.70
2022-08-05T14:38:31.859Z,3.67
2022-08-05T14:41:08.236Z,4.15
2022-08-05T14:44:02.221Z,4.82
2022-08-05T14:46:35.168Z,6.35
2022-08-05T14:49:08.460Z,4.32
2022-08-05T14:51:42.406Z,4.53
2022-08-05T14:54:28.559Z,4.70
2022-08-05T14:57:05.336Z,5.30
2022-08-05T14:59:42.753Z,5.22
2022-08-05T15:02:16.281Z,6.32
2022-08-05T15:04:49.876Z,5.28
2022-08-05T15:08:12.435Z,6.70
2022-08-05T15:10:15.839Z,5.75
2022-08-05T15:13:01.156Z,5.55
2022-08-05T15:15:55.984Z,6.35
2022-08-05T15:18:29.425Z,3.63
2022-08-05T15:21:07.622Z,3.30
2022-08-05T15:23:41.065Z,5.82
2022-08-05T15:26:15.447Z,6.47
2022-08-05T15:29:06.641Z,5.35
2022-08-05T15:31:40.635Z,6.53
2022-08-05T15:34:32.076Z,5.13
2022-08-05T15:37:15.518Z,2.78
2022-08-05T15:41:04.090Z,6.10
2022-08-05T15:42:55.250Z,4.22
2022-08-05T15:45:38.268Z,8.52
2022-08-05T15:48:13.976Z,3.90
2022-08-05T15:50:47.891Z,2.92
2022-08-05T15:53:21.362Z,6.82
2022-08-05T15:56:03.887Z,3.00
2022-08-05T15:58:37.932Z,3.17
2022-08-05T16:01:17.346Z,5.78
2022-08-05T16:03:51.222Z,7.38
2022-08-05T16:06:24.864Z,3.50
2022-08-05T16:08:57.931Z,4.03
2022-08-05T16:11:42.713Z,4.07
2022-08-05T16:14:17.248Z,4.22
2022-08-05T16:16:52.176Z,7.38
2022-08-05T16:20:05.575Z,6.82
2022-08-05T16:22:19.164Z,5.15
2022-08-05T16:25:00.637Z,4.10
2022-08-05T16:28:00.134Z,5.97
2022-08-05T16:30:36.177Z,10.63
2022-08-05T16:33:10.719Z,4.18
2022-08-05T16:35:44.662Z,7.80
2022-08-05T16:38:25.638Z,3.72
2022-08-05T16:41:02.274Z,2.75
2022-08-05T16:43:56.307Z,1.98
2022-08-05T16:46:29.786Z,2.70
2022-08-05T16:49:07.493Z,4.47
2022-08-05T16:51:50.178Z,5.95
2022-08-05T16:54:28.942Z,5.28
2022-08-05T16:57:06.737Z,3.38
2022-08-05T17:00:03.103Z,2.53
2022-08-05T17:02:40.700Z,2.58
2022-08-05T17:05:15.245Z,3.50
2022-08-05T17:07:54.711Z,3.90
2022-08-05T17:13:03.787Z,4.70
2022-08-05T17:15:47.909Z,5.45
2022-08-05T17:18:22.652Z,1.90
2022-08-05T17:20:57.046Z,5.22
2022-08-05T17:24:05.510Z,2.53
2022-08-05T17:26:23.360Z,6.03
2022-08-05T17:28:56.445Z,3.67
2022-08-05T17:31:41.243Z,6.07
2022-08-05T17:34:29.780Z,2.03
2022-08-05T17:37:39.288Z,3.97
2022-08-05T17:40:00.251Z,3.78
2022-08-05T17:42:33.524Z,3.28
2022-08-05T17:45:09.945Z,3.13
2022-08-05T17:47:56.275Z,2.35
2022-08-05T17:50:33.146Z,4.40
2022-08-05T17:53:08.430Z,4.55
2022-08-05T17:55:42.032Z,2.58
2022-08-05T17:58:16.453Z,2.60
2022-08-05T18:00:54.397Z,4.80
2022-08-05T18:06:29.299Z,1.35
2022-08-05T18:09:05.501Z,3.03
2022-08-05T18:11:42.481Z,3.92
2022-08-05T18:14:20.750Z,2.53
2022-08-05T18:16:53.758Z,3.00
2022-08-05T18:19:26.793Z,5.38
2022-08-05T18:22:08.499Z,3.53
2022-08-05T18:24:45.594Z,2.95
2022-08-05T18:27:19.159Z,2.25
2022-08-05T18:29:54.803Z,2.70
2022-08-05T18:32:29.567Z,4.63
2022-08-05T18:35:02.919Z,3.47
2022-08-05T18:37:40.235Z,0.80
2022-08-05T18:41:50.332Z,2.65
2022-08-05T18:43:09.187Z,3.05
2022-08-05T18:45:49.640Z,0.50
2022-08-05T18:48:31.252Z,2.97
2022-08-05T18:52:03.317Z,7.72
2022-08-05T18:54:16.939Z,1.42
2022-08-05T18:56:52.186Z,3.35
2022-08-05T18:59:42.967Z,8.65
2022-08-05T19:02:26.728Z,3.10
2022-08-05T19:06:05.291Z,2.53
2022-08-05T19:07:56.232Z,2.08
2022-08-05T19:10:31.417Z,5.00
2022-08-05T19:13:05.970Z,3.35
2022-08-05T19:15:59.323Z,3.45
2022-08-05T19:18:33.736Z,3.63
2022-08-05T19:21:07.656Z,2.45
2022-08-05T19:24:07.341Z,2.50
2022-08-05T19:26:33.749Z,3.78
2022-08-05T19:29:08.089Z,5.10
2022-08-05T19:31:44.732Z,3.00
2022-08-05T19:34:23.944Z,3.03
2022-08-05T19:36:56.959Z,2.63
2022-08-05T19:39:30.584Z,3.05
2022-08-05T19:42:07.831Z,4.47
2022-08-05T19:44:45.016Z,1.75
2022-08-05T19:47:19.801Z,1.73
2022-08-05T19:49:57.362Z,4.20
2022-08-05T19:52:40.475Z,1.83
2022-08-05T19:56:14.122Z,2.67
2022-08-05T19:58:28.639Z,1.95
2022-08-05T20:01:01.959Z,3.40
2022-08-05T20:03:40.643Z,3.13
2022-08-05T20:06:15.910Z,2.28
2022-08-05T20:09:06.074Z,3.72
2022-08-05T20:11:48.051Z,1.77
2022-08-05T20:14:27.138Z,2.13
2022-08-05T20:17:04.838Z,3.55
2022-08-05T20:22:15.196Z,2.30
2022-08-05T20:24:48.071Z,2.03
2022-08-05T20:27:23.169Z,3.00
2022-08-05T20:30:02.085Z,3.13
2022-08-05T20:32:36.953Z,4.50
2022-08-05T20:35:18.344Z,2.83
2022-08-05T20:38:06.331Z,3.03
2022-08-05T20:40:43.136Z,2.00
2022-08-05T20:43:16.270Z,6.15
2022-08-05T20:45:57.011Z,2.65
2022-08-05T20:48:36.631Z,4.28
2022-08-05T20:51:10.024Z,2.72
2022-08-05T20:53:43.166Z,1.67
2022-08-05T20:56:34.161Z,3.85
2022-08-05T20:59:26.489Z,3.22
2022-08-05T21:02:00.261Z,3.38
2022-08-05T21:04:34.787Z,3.15
2022-08-05T21:07:10.573Z,4.03
2022-08-05T21:09:50.148Z,3.50
2022-08-05T21:12:26.598Z,1.67
2022-08-05T21:14:59.874Z,4.40
2022-08-05T21:17:32.754Z,1.80
2022-08-05T21:20:09.985Z,2.38
2022-08-05T21:22:43.326Z,2.80
2022-08-05T21:25:16.635Z,2.05
2022-08-05T21:27:52.671Z,3.72
2022-08-05T21:30:26.125Z,6.43
2022-08-05T21:32:59.746Z,2.92
2022-08-05T21:35:55.378Z,3.10
2022-08-05T21:38:29.143Z,2.97
2022-08-05T21:41:02.352Z,2.88
2022-08-05T21:43:41.432Z,4.43
2022-08-05T21:46:14.880Z,5.00
2022-08-05T21:48:50.912Z,3.67
2022-08-05T21:54:27.886Z,2.95
2022-08-05T21:57:29.644Z,5.40
2022-08-05T22:00:06.227Z,4.13
2022-08-05T22:02:40.247Z,4.88
2022-08-05T22:05:15.131Z,4.03
2022-08-05T22:07:59.134Z,3.72
2022-08-05T22:10:35.291Z,4.53
2022-08-05T22:14:05.247Z,6.35
2022-08-05T22:16:15.373Z,4.72
2022-08-05T22:18:54.632Z,3.58
2022-08-05T22:21:31.908Z,4.30
2022-08-05T22:24:40.895Z,5.00
2022-08-05T22:28:11.308Z,1.63
2022-08-05T22:30:38.315Z,2.30
2022-08-05T22:33:56.524Z,5.75
2022-08-05T22:36:24.100Z,5.47
2022-08-05T22:38:57.656Z,3.38
2022-08-05T22:42:11.835Z,1.80
2022-08-05T22:44:37.040Z,3.45
2022-08-05T22:47:11.201Z,2.67
2022-08-05T22:50:23.190Z,2.85
2022-08-05T22:52:39.911Z,5.40
2022-08-05T22:55:19.230Z,5.03
2022-08-05T22:57:55.676Z,5.95
2022-08-05T23:00:31.335Z,2.70
2022-08-05T23:03:04.567Z,3.10
2022-08-05T23:05:37.710Z,4.72
2022-08-05T23:08:12.324Z,3.88
2022-08-05T23:10:55.913Z,2.55
2022-08-05T23:13:30.364Z,6.13
2022-08-05T23:16:03.456Z,4.32
2022-08-05T23:18:36.723Z,1.77
2022-08-05T23:21:11.608Z,5.10
2022-08-05T23:23:49.448Z,7.80
2022-08-05T23:26:22.447Z,4.07
2022-08-05T23:29:02.093Z,6.43
2022-08-05T23:31:37.573Z,3.92
2022-08-05T23:34:10.486Z,2.15
2022-08-05T23:36:44.602Z,3.20
2022-08-05T23:39:32.275Z,2.28
2022-08-05T23:42:14.200Z,7.25
2022-08-05T23:44:54.432Z,4.10
2022-08-05T23:47:27.722Z,6.93
2022-08-05T23:50:09.317Z,3.10
2022-08-05T23:52:49.553Z,6.95
2022-08-05T23:55:24.616Z,4.70
2022-08-05T23:58:04.598Z,4.25
